sensor_id;sensor_type;location;lat;lon;timestamp;P1;durP1;ratioP1;P2;durP2;ratioP2
19543;SDS011;9917;51.256;7.152;2023-07-24T00:02:15;4.85;;;2.30;;
19543;SDS011;9917;51.256;7.152;2023-07-24T00:04:41;4.32;;;2.45;;
19543;SDS011;9917;51.256;7.152;2023-07-24T00:07:07;3.55;;;2.22;;
19543;SDS011;9917;51.256;7.152;2023-07-24T00:09:33;3.30;;;2.15;;
19543;SDS011;9917;51.256;7.152;2023-07-24T00:11:59;2.92;;;2.08;;
19543;SDS011;9917;51.256;7.152;2023-07-24T00:14:26;3.25;;;1.90;;
19543;SDS011;9917;51.256;7.152;2023-07-24T00:16:52;2.65;;;1.70;;
19543;SDS011;9917;51.256;7.152;2023-07-24T00:19:19;3.13;;;2.00;;
19543;SDS011;9917;51.256;7.152;2023-07-24T00:21:45;4.60;;;1.90;;
19543;SDS011;9917;51.256;7.152;2023-07-24T00:24:10;3.17;;;2.15;;
19543;SDS011;9917;51.256;7.152;2023-07-24T00:26:39;3.75;;;2.03;;
19543;SDS011;9917;51.256;7.152;2023-07-24T00:29:05;3.20;;;1.77;;
19543;SDS011;9917;51.256;7.152;2023-07-24T00:31:31;3.92;;;1.65;;
19543;SDS011;9917;51.256;7.152;2023-07-24T00:33:57;4.63;;;1.75;;
19543;SDS011;9917;51.256;7.152;2023-07-24T00:36:24;3.28;;;1.65;;
19543;SDS011;9917;51.256;7.152;2023-07-24T00:38:50;3.72;;;1.92;;
19543;SDS011;9917;51.256;7.152;2023-07-24T00:41:16;3.20;;;2.00;;
19543;SDS011;9917;51.256;7.152;2023-07-24T00:43:42;2.95;;;1.73;;
19543;SDS011;9917;51.256;7.152;2023-07-24T00:46:08;3.85;;;2.08;;
19543;SDS011;9917;51.256;7.152;2023-07-24T00:48:34;3.67;;;2.28;;
19543;SDS011;9917;51.256;7.152;2023-07-24T00:51:00;5.88;;;2.05;;
19543;SDS011;9917;51.256;7.152;2023-07-24T00:53:27;5.03;;;2.00;;
19543;SDS011;9917;51.256;7.152;2023-07-24T00:55:53;3.55;;;1.90;;
19543;SDS011;9917;51.256;7.152;2023-07-24T00:58:19;3.67;;;2.08;;
19543;SDS011;9917;51.256;7.152;2023-07-24T01:00:45;3.78;;;2.15;;
19543;SDS011;9917;51.256;7.152;2023-07-24T01:03:11;2.72;;;1.90;;
19543;SDS011;9917;51.256;7.152;2023-07-24T01:05:37;3.60;;;1.60;;
19543;SDS011;9917;51.256;7.152;2023-07-24T01:08:03;3.58;;;2.00;;
19543;SDS011;9917;51.256;7.152;2023-07-24T01:10:31;3.00;;;2.08;;
19543;SDS011;9917;51.256;7.152;2023-07-24T01:12:58;3.53;;;2.30;;
19543;SDS011;9917;51.256;7.152;2023-07-24T01:15:29;3.42;;;2.25;;
19543;SDS011;9917;51.256;7.152;2023-07-24T01:17:59;6.88;;;2.60;;
19543;SDS011;9917;51.256;7.152;2023-07-24T01:20:26;4.30;;;2.17;;
19543;SDS011;9917;51.256;7.152;2023-07-24T01:25:45;6.57;;;2.20;;
19543;SDS011;9917;51.256;7.152;2023-07-24T01:28:18;4.88;;;2.63;;
19543;SDS011;9917;51.256;7.152;2023-07-24T01:30:43;4.95;;;2.60;;
19543;SDS011;9917;51.256;7.152;2023-07-24T01:33:09;5.68;;;2.40;;
19543;SDS011;9917;51.256;7.152;2023-07-24T01:35:35;5.20;;;2.58;;
19543;SDS011;9917;51.256;7.152;2023-07-24T01:38:03;5.28;;;2.40;;
19543;SDS011;9917;51.256;7.152;2023-07-24T01:40:29;4.05;;;2.53;;
19543;SDS011;9917;51.256;7.152;2023-07-24T01:42:57;4.32;;;2.65;;
19543;SDS011;9917;51.256;7.152;2023-07-24T01:45:22;5.25;;;2.63;;
19543;SDS011;9917;51.256;7.152;2023-07-24T01:47:48;4.40;;;2.70;;
19543;SDS011;9917;51.256;7.152;2023-07-24T01:50:14;4.50;;;2.80;;
19543;SDS011;9917;51.256;7.152;2023-07-24T01:52:40;3.67;;;2.30;;
19543;SDS011;9917;51.256;7.152;2023-07-24T01:55:06;4.45;;;2.60;;
19543;SDS011;9917;51.256;7.152;2023-07-24T01:57:32;3.90;;;2.65;;
19543;SDS011;9917;51.256;7.152;2023-07-24T02:00:00;4.25;;;2.40;;
19543;SDS011;9917;51.256;7.152;2023-07-24T02:02:25;5.05;;;2.67;;
19543;SDS011;9917;51.256;7.152;2023-07-24T02:04:51;4.90;;;2.92;;
19543;SDS011;9917;51.256;7.152;2023-07-24T02:07:17;4.03;;;2.30;;
19543;SDS011;9917;51.256;7.152;2023-07-24T02:09:43;3.92;;;2.78;;
19543;SDS011;9917;51.256;7.152;2023-07-24T02:12:09;4.40;;;2.90;;
19543;SDS011;9917;51.256;7.152;2023-07-24T02:14:35;3.70;;;2.35;;
19543;SDS011;9917;51.256;7.152;2023-07-24T02:17:02;4.82;;;2.95;;
19543;SDS011;9917;51.256;7.152;2023-07-24T02:19:28;4.32;;;2.60;;
19543;SDS011;9917;51.256;7.152;2023-07-24T02:21:54;5.97;;;2.78;;
19543;SDS011;9917;51.256;7.152;2023-07-24T02:24:20;5.95;;;2.80;;
19543;SDS011;9917;51.256;7.152;2023-07-24T02:26:46;5.88;;;2.72;;
19543;SDS011;9917;51.256;7.152;2023-07-24T02:29:12;7.97;;;2.75;;
19543;SDS011;9917;51.256;7.152;2023-07-24T02:31:38;7.60;;;3.00;;
19543;SDS011;9917;51.256;7.152;2023-07-24T02:34:05;5.55;;;3.13;;
19543;SDS011;9917;51.256;7.152;2023-07-24T02:36:31;4.35;;;2.40;;
19543;SDS011;9917;51.256;7.152;2023-07-24T02:38:57;4.95;;;2.85;;
19543;SDS011;9917;51.256;7.152;2023-07-24T02:41:23;4.18;;;2.65;;
19543;SDS011;9917;51.256;7.152;2023-07-24T02:43:49;4.22;;;2.67;;
19543;SDS011;9917;51.256;7.152;2023-07-24T02:46:15;4.68;;;2.95;;
19543;SDS011;9917;51.256;7.152;2023-07-24T02:48:40;4.28;;;2.83;;
19543;SDS011;9917;51.256;7.152;2023-07-24T02:51:08;5.30;;;2.55;;
19543;SDS011;9917;51.256;7.152;2023-07-24T02:53:33;4.28;;;2.83;;
19543;SDS011;9917;51.256;7.152;2023-07-24T02:56:00;7.22;;;3.13;;
19543;SDS011;9917;51.256;7.152;2023-07-24T02:58:26;6.35;;;2.88;;
19543;SDS011;9917;51.256;7.152;2023-07-24T03:00:52;8.25;;;3.22;;
19543;SDS011;9917;51.256;7.152;2023-07-24T03:03:18;5.07;;;3.05;;
19543;SDS011;9917;51.256;7.152;2023-07-24T03:05:44;5.32;;;3.25;;
19543;SDS011;9917;51.256;7.152;2023-07-24T03:08:11;7.03;;;3.58;;
19543;SDS011;9917;51.256;7.152;2023-07-24T03:10:39;6.22;;;3.38;;
19543;SDS011;9917;51.256;7.152;2023-07-24T03:13:05;6.68;;;3.40;;
19543;SDS011;9917;51.256;7.152;2023-07-24T03:15:31;7.78;;;3.33;;
19543;SDS011;9917;51.256;7.152;2023-07-24T03:17:57;7.85;;;3.10;;
19543;SDS011;9917;51.256;7.152;2023-07-24T03:20:23;4.75;;;3.35;;
19543;SDS011;9917;51.256;7.152;2023-07-24T03:22:49;8.38;;;3.10;;
19543;SDS011;9917;51.256;7.152;2023-07-24T03:25:16;7.13;;;3.38;;
19543;SDS011;9917;51.256;7.152;2023-07-24T03:27:42;6.13;;;3.65;;
19543;SDS011;9917;51.256;7.152;2023-07-24T03:30:08;6.65;;;3.20;;
19543;SDS011;9917;51.256;7.152;2023-07-24T03:32:36;6.07;;;3.22;;
19543;SDS011;9917;51.256;7.152;2023-07-24T03:35:02;7.00;;;4.32;;
19543;SDS011;9917;51.256;7.152;2023-07-24T03:37:28;5.82;;;3.50;;
19543;SDS011;9917;51.256;7.152;2023-07-24T03:39:54;6.40;;;3.53;;
19543;SDS011;9917;51.256;7.152;2023-07-24T03:42:27;5.97;;;3.88;;
19543;SDS011;9917;51.256;7.152;2023-07-24T03:44:54;5.88;;;3.53;;
19543;SDS011;9917;51.256;7.152;2023-07-24T03:47:21;5.07;;;3.50;;
19543;SDS011;9917;51.256;7.152;2023-07-24T03:49:47;6.43;;;3.78;;
19543;SDS011;9917;51.256;7.152;2023-07-24T03:52:13;8.32;;;3.95;;
19543;SDS011;9917;51.256;7.152;2023-07-24T03:54:39;7.97;;;3.75;;
19543;SDS011;9917;51.256;7.152;2023-07-24T03:57:05;5.22;;;3.38;;
19543;SDS011;9917;51.256;7.152;2023-07-24T03:59:32;6.07;;;3.92;;
19543;SDS011;9917;51.256;7.152;2023-07-24T04:01:58;6.95;;;3.45;;
19543;SDS011;9917;51.256;7.152;2023-07-24T04:04:24;7.35;;;3.58;;
19543;SDS011;9917;51.256;7.152;2023-07-24T04:06:50;6.60;;;4.00;;
19543;SDS011;9917;51.256;7.152;2023-07-24T04:09:15;7.05;;;4.22;;
19543;SDS011;9917;51.256;7.152;2023-07-24T04:11:42;5.68;;;3.55;;
19543;SDS011;9917;51.256;7.152;2023-07-24T04:14:08;5.65;;;3.35;;
19543;SDS011;9917;51.256;7.152;2023-07-24T04:16:35;6.70;;;4.07;;
19543;SDS011;9917;51.256;7.152;2023-07-24T04:19:01;6.72;;;3.92;;
19543;SDS011;9917;51.256;7.152;2023-07-24T04:21:27;7.60;;;3.55;;
19543;SDS011;9917;51.256;7.152;2023-07-24T04:23:53;6.25;;;3.30;;
19543;SDS011;9917;51.256;7.152;2023-07-24T04:26:19;7.63;;;3.30;;
19543;SDS011;9917;51.256;7.152;2023-07-24T04:28:45;7.30;;;3.55;;
19543;SDS011;9917;51.256;7.152;2023-07-24T04:31:10;5.70;;;3.42;;
19543;SDS011;9917;51.256;7.152;2023-07-24T04:33:38;5.88;;;3.08;;
19543;SDS011;9917;51.256;7.152;2023-07-24T04:36:04;8.38;;;3.20;;
19543;SDS011;9917;51.256;7.152;2023-07-24T04:38:30;4.82;;;2.90;;
19543;SDS011;9917;51.256;7.152;2023-07-24T04:40:55;6.03;;;3.22;;
19543;SDS011;9917;51.256;7.152;2023-07-24T04:43:21;7.05;;;3.20;;
19543;SDS011;9917;51.256;7.152;2023-07-24T04:45:47;4.45;;;2.90;;
19543;SDS011;9917;51.256;7.152;2023-07-24T04:48:13;5.10;;;3.10;;
19543;SDS011;9917;51.256;7.152;2023-07-24T04:50:41;5.40;;;3.38;;
19543;SDS011;9917;51.256;7.152;2023-07-24T04:53:06;5.35;;;3.15;;
19543;SDS011;9917;51.256;7.152;2023-07-24T04:55:32;6.65;;;3.30;;
19543;SDS011;9917;51.256;7.152;2023-07-24T04:57:58;8.80;;;3.30;;
19543;SDS011;9917;51.256;7.152;2023-07-24T05:00:24;4.95;;;2.95;;
19543;SDS011;9917;51.256;7.152;2023-07-24T05:02:50;6.85;;;3.05;;
19543;SDS011;9917;51.256;7.152;2023-07-24T05:05:16;5.57;;;2.78;;
19543;SDS011;9917;51.256;7.152;2023-07-24T05:07:43;7.47;;;3.22;;
19543;SDS011;9917;51.256;7.152;2023-07-24T05:10:09;6.15;;;3.40;;
19543;SDS011;9917;51.256;7.152;2023-07-24T05:12:35;8.15;;;3.10;;
19543;SDS011;9917;51.256;7.152;2023-07-24T05:15:01;5.55;;;3.33;;
19543;SDS011;9917;51.256;7.152;2023-07-24T05:17:27;6.18;;;3.28;;
19543;SDS011;9917;51.256;7.152;2023-07-24T05:19:53;5.40;;;3.10;;
19543;SDS011;9917;51.256;7.152;2023-07-24T05:22:19;7.53;;;3.60;;
19543;SDS011;9917;51.256;7.152;2023-07-24T05:24:46;6.05;;;3.22;;
19543;SDS011;9917;51.256;7.152;2023-07-24T05:27:12;8.30;;;3.38;;
19543;SDS011;9917;51.256;7.152;2023-07-24T05:29:38;6.32;;;3.47;;
19543;SDS011;9917;51.256;7.152;2023-07-24T05:32:04;7.35;;;3.60;;
19543;SDS011;9917;51.256;7.152;2023-07-24T05:34:30;6.63;;;3.50;;
19543;SDS011;9917;51.256;7.152;2023-07-24T05:36:56;7.32;;;3.80;;
19543;SDS011;9917;51.256;7.152;2023-07-24T05:39:22;8.60;;;3.80;;
19543;SDS011;9917;51.256;7.152;2023-07-24T05:41:49;7.43;;;4.22;;
19543;SDS011;9917;51.256;7.152;2023-07-24T05:44:15;7.20;;;4.07;;
19543;SDS011;9917;51.256;7.152;2023-07-24T05:46:41;8.45;;;4.47;;
19543;SDS011;9917;51.256;7.152;2023-07-24T05:49:07;7.60;;;3.90;;
19543;SDS011;9917;51.256;7.152;2023-07-24T05:51:33;8.98;;;3.92;;
19543;SDS011;9917;51.256;7.152;2023-07-24T05:53:59;12.35;;;3.97;;
19543;SDS011;9917;51.256;7.152;2023-07-24T05:56:25;9.07;;;4.18;;
19543;SDS011;9917;51.256;7.152;2023-07-24T05:58:52;8.52;;;4.38;;
19543;SDS011;9917;51.256;7.152;2023-07-24T06:01:18;8.27;;;4.35;;
19543;SDS011;9917;51.256;7.152;2023-07-24T06:03:43;6.95;;;4.07;;
19543;SDS011;9917;51.256;7.152;2023-07-24T06:06:09;7.70;;;4.00;;
19543;SDS011;9917;51.256;7.152;2023-07-24T06:08:35;12.52;;;4.55;;
19543;SDS011;9917;51.256;7.152;2023-07-24T06:11:01;8.95;;;3.58;;
19543;SDS011;9917;51.256;7.152;2023-07-24T06:13:27;9.35;;;4.95;;
19543;SDS011;9917;51.256;7.152;2023-07-24T06:15:54;6.90;;;3.90;;
19543;SDS011;9917;51.256;7.152;2023-07-24T06:18:20;7.07;;;3.63;;
19543;SDS011;9917;51.256;7.152;2023-07-24T06:20:46;7.20;;;3.30;;
19543;SDS011;9917;51.256;7.152;2023-07-24T06:23:12;9.98;;;4.18;;
19543;SDS011;9917;51.256;7.152;2023-07-24T06:25:39;7.25;;;3.63;;
19543;SDS011;9917;51.256;7.152;2023-07-24T06:28:04;7.00;;;3.78;;
19543;SDS011;9917;51.256;7.152;2023-07-24T06:30:30;8.88;;;3.75;;
19543;SDS011;9917;51.256;7.152;2023-07-24T06:32:58;7.80;;;4.00;;
19543;SDS011;9917;51.256;7.152;2023-07-24T06:35:23;8.45;;;4.20;;
19543;SDS011;9917;51.256;7.152;2023-07-24T06:37:49;8.27;;;4.15;;
19543;SDS011;9917;51.256;7.152;2023-07-24T06:40:15;8.90;;;3.92;;
19543;SDS011;9917;51.256;7.152;2023-07-24T06:42:41;7.90;;;3.22;;
19543;SDS011;9917;51.256;7.152;2023-07-24T06:45:07;7.38;;;3.50;;
19543;SDS011;9917;51.256;7.152;2023-07-24T06:47:33;7.32;;;3.45;;
19543;SDS011;9917;51.256;7.152;2023-07-24T06:50:00;6.13;;;3.00;;
19543;SDS011;9917;51.256;7.152;2023-07-24T06:52:26;6.30;;;3.55;;
19543;SDS011;9917;51.256;7.152;2023-07-24T06:54:52;7.93;;;3.80;;
19543;SDS011;9917;51.256;7.152;2023-07-24T06:57:18;5.70;;;3.00;;
19543;SDS011;9917;51.256;7.152;2023-07-24T06:59:43;6.38;;;3.30;;
19543;SDS011;9917;51.256;7.152;2023-07-24T07:02:09;5.20;;;3.30;;
19543;SDS011;9917;51.256;7.152;2023-07-24T07:04:35;11.60;;;4.28;;
19543;SDS011;9917;51.256;7.152;2023-07-24T07:07:03;6.03;;;3.20;;
19543;SDS011;9917;51.256;7.152;2023-07-24T07:09:29;6.70;;;3.15;;
19543;SDS011;9917;51.256;7.152;2023-07-24T07:11:55;6.10;;;3.30;;
19543;SDS011;9917;51.256;7.152;2023-07-24T07:14:21;6.25;;;2.90;;
19543;SDS011;9917;51.256;7.152;2023-07-24T07:16:47;4.57;;;2.97;;
19543;SDS011;9917;51.256;7.152;2023-07-24T07:19:13;5.93;;;2.70;;
19543;SDS011;9917;51.256;7.152;2023-07-24T07:21:39;5.50;;;3.22;;
19543;SDS011;9917;51.256;7.152;2023-07-24T07:24:06;7.65;;;2.90;;
19543;SDS011;9917;51.256;7.152;2023-07-24T07:26:31;5.70;;;3.10;;
19543;SDS011;9917;51.256;7.152;2023-07-24T07:28:57;4.97;;;2.30;;
19543;SDS011;9917;51.256;7.152;2023-07-24T07:31:23;4.95;;;2.60;;
19543;SDS011;9917;51.256;7.152;2023-07-24T07:33:49;4.60;;;2.47;;
19543;SDS011;9917;51.256;7.152;2023-07-24T07:36:15;5.15;;;2.55;;
19543;SDS011;9917;51.256;7.152;2023-07-24T07:38:41;5.45;;;2.58;;
19543;SDS011;9917;51.256;7.152;2023-07-24T07:41:08;5.18;;;2.40;;
19543;SDS011;9917;51.256;7.152;2023-07-24T07:43:34;4.72;;;2.63;;
19543;SDS011;9917;51.256;7.152;2023-07-24T07:46:00;5.15;;;2.65;;
19543;SDS011;9917;51.256;7.152;2023-07-24T07:48:26;4.97;;;2.50;;
19543;SDS011;9917;51.256;7.152;2023-07-24T07:50:52;3.92;;;2.17;;
19543;SDS011;9917;51.256;7.152;2023-07-24T07:53:18;3.75;;;2.40;;
19543;SDS011;9917;51.256;7.152;2023-07-24T07:55:44;3.88;;;2.30;;
19543;SDS011;9917;51.256;7.152;2023-07-24T07:58:11;5.20;;;2.47;;
19543;SDS011;9917;51.256;7.152;2023-07-24T08:00:37;3.90;;;2.42;;
19543;SDS011;9917;51.256;7.152;2023-07-24T08:03:03;5.53;;;3.17;;
19543;SDS011;9917;51.256;7.152;2023-07-24T08:05:28;6.10;;;2.75;;
19543;SDS011;9917;51.256;7.152;2023-07-24T08:07:54;7.88;;;3.33;;
19543;SDS011;9917;51.256;7.152;2023-07-24T08:10:20;7.30;;;2.25;;
19543;SDS011;9917;51.256;7.152;2023-07-24T08:12:46;5.47;;;2.40;;
19543;SDS011;9917;51.256;7.152;2023-07-24T08:15:14;6.35;;;2.25;;
19543;SDS011;9917;51.256;7.152;2023-07-24T08:17:39;3.45;;;2.08;;
19543;SDS011;9917;51.256;7.152;2023-07-24T08:20:06;3.60;;;1.95;;
19543;SDS011;9917;51.256;7.152;2023-07-24T08:22:32;3.97;;;2.15;;
19543;SDS011;9917;51.256;7.152;2023-07-24T08:24:58;6.03;;;2.20;;
19543;SDS011;9917;51.256;7.152;2023-07-24T08:27:24;2.67;;;1.52;;
19543;SDS011;9917;51.256;7.152;2023-07-24T08:29:50;3.30;;;1.92;;
19543;SDS011;9917;51.256;7.152;2023-07-24T08:32:18;3.55;;;1.83;;
19543;SDS011;9917;51.256;7.152;2023-07-24T08:34:43;4.32;;;2.10;;
19543;SDS011;9917;51.256;7.152;2023-07-24T08:37:10;5.13;;;1.80;;
19543;SDS011;9917;51.256;7.152;2023-07-24T08:39:36;5.95;;;2.38;;
19543;SDS011;9917;51.256;7.152;2023-07-24T08:42:07;3.72;;;2.05;;
19543;SDS011;9917;51.256;7.152;2023-07-24T08:44:34;3.60;;;2.03;;
19543;SDS011;9917;51.256;7.152;2023-07-24T08:47:01;3.70;;;1.80;;
19543;SDS011;9917;51.256;7.152;2023-07-24T08:49:29;3.67;;;2.22;;
19543;SDS011;9917;51.256;7.152;2023-07-24T08:51:55;3.25;;;1.92;;
19543;SDS011;9917;51.256;7.152;2023-07-24T08:54:21;3.65;;;1.95;;
19543;SDS011;9917;51.256;7.152;2023-07-24T08:56:49;4.63;;;1.98;;
19543;SDS011;9917;51.256;7.152;2023-07-24T08:59:15;4.78;;;2.10;;
19543;SDS011;9917;51.256;7.152;2023-07-24T09:01:41;4.55;;;1.95;;
19543;SDS011;9917;51.256;7.152;2023-07-24T09:04:07;6.75;;;1.83;;
19543;SDS011;9917;51.256;7.152;2023-07-24T09:06:34;4.20;;;2.05;;
19543;SDS011;9917;51.256;7.152;2023-07-24T09:09:00;3.75;;;2.17;;
19543;SDS011;9917;51.256;7.152;2023-07-24T09:11:26;5.03;;;2.17;;
19543;SDS011;9917;51.256;7.152;2023-07-24T09:13:52;4.28;;;2.40;;
19543;SDS011;9917;51.256;7.152;2023-07-24T09:16:21;5.20;;;2.70;;
19543;SDS011;9917;51.256;7.152;2023-07-24T09:18:48;11.50;;;4.47;;
19543;SDS011;9917;51.256;7.152;2023-07-24T09:21:14;12.15;;;4.22;;
19543;SDS011;9917;51.256;7.152;2023-07-24T09:23:41;5.68;;;3.03;;
19543;SDS011;9917;51.256;7.152;2023-07-24T09:26:07;6.65;;;3.22;;
19543;SDS011;9917;51.256;7.152;2023-07-24T09:28:33;5.07;;;3.08;;
19543;SDS011;9917;51.256;7.152;2023-07-24T09:30:59;5.60;;;2.88;;
19543;SDS011;9917;51.256;7.152;2023-07-24T09:33:33;4.70;;;2.95;;
19543;SDS011;9917;51.256;7.152;2023-07-24T09:36:01;4.78;;;2.78;;
19543;SDS011;9917;51.256;7.152;2023-07-24T09:38:27;7.07;;;3.22;;
19543;SDS011;9917;51.256;7.152;2023-07-24T09:41:02;6.70;;;3.67;;
19543;SDS011;9917;51.256;7.152;2023-07-24T09:43:28;5.15;;;3.28;;
19543;SDS011;9917;51.256;7.152;2023-07-24T09:46:02;5.88;;;3.38;;
19543;SDS011;9917;51.256;7.152;2023-07-24T09:48:29;5.45;;;3.30;;
19543;SDS011;9917;51.256;7.152;2023-07-24T09:50:56;5.95;;;3.38;;
19543;SDS011;9917;51.256;7.152;2023-07-24T09:53:24;4.63;;;3.28;;
19543;SDS011;9917;51.256;7.152;2023-07-24T09:55:56;5.10;;;3.17;;
19543;SDS011;9917;51.256;7.152;2023-07-24T09:58:25;5.97;;;3.53;;
19543;SDS011;9917;51.256;7.152;2023-07-24T10:00:57;6.25;;;3.40;;
19543;SDS011;9917;51.256;7.152;2023-07-24T10:03:23;7.13;;;3.30;;
19543;SDS011;9917;51.256;7.152;2023-07-24T10:05:49;5.72;;;3.22;;
19543;SDS011;9917;51.256;7.152;2023-07-24T10:08:15;5.07;;;3.30;;
19543;SDS011;9917;51.256;7.152;2023-07-24T10:10:45;6.20;;;3.30;;
19543;SDS011;9917;51.256;7.152;2023-07-24T10:13:11;4.25;;;3.00;;
19543;SDS011;9917;51.256;7.152;2023-07-24T10:15:54;6.40;;;3.40;;
19543;SDS011;9917;51.256;7.152;2023-07-24T10:18:25;6.25;;;3.20;;
19543;SDS011;9917;51.256;7.152;2023-07-24T10:20:59;4.78;;;2.53;;
19543;SDS011;9917;51.256;7.152;2023-07-24T10:26:02;4.43;;;2.80;;
19543;SDS011;9917;51.256;7.152;2023-07-24T10:28:30;6.13;;;2.90;;
19543;SDS011;9917;51.256;7.152;2023-07-24T10:30:58;5.00;;;3.30;;
19543;SDS011;9917;51.256;7.152;2023-07-24T10:33:24;6.10;;;2.85;;
19543;SDS011;9917;51.256;7.152;2023-07-24T10:35:54;4.57;;;2.70;;
19543;SDS011;9917;51.256;7.152;2023-07-24T10:38:32;4.93;;;2.97;;
19543;SDS011;9917;51.256;7.152;2023-07-24T10:41:00;5.32;;;2.60;;
19543;SDS011;9917;51.256;7.152;2023-07-24T10:43:27;5.40;;;2.38;;
19543;SDS011;9917;51.256;7.152;2023-07-24T10:45:53;3.42;;;1.58;;
19543;SDS011;9917;51.256;7.152;2023-07-24T10:48:21;5.03;;;2.40;;
19543;SDS011;9917;51.256;7.152;2023-07-24T10:50:49;4.47;;;2.17;;
19543;SDS011;9917;51.256;7.152;2023-07-24T10:53:16;5.80;;;2.40;;
19543;SDS011;9917;51.256;7.152;2023-07-24T10:55:44;4.95;;;2.22;;
19543;SDS011;9917;51.256;7.152;2023-07-24T10:58:11;4.38;;;1.98;;
19543;SDS011;9917;51.256;7.152;2023-07-24T11:00:38;4.47;;;1.63;;
19543;SDS011;9917;51.256;7.152;2023-07-24T11:03:04;3.78;;;2.35;;
19543;SDS011;9917;51.256;7.152;2023-07-24T11:05:33;4.45;;;2.10;;
19543;SDS011;9917;51.256;7.152;2023-07-24T11:07:59;4.95;;;2.13;;
19543;SDS011;9917;51.256;7.152;2023-07-24T11:10:25;5.75;;;2.92;;
19543;SDS011;9917;51.256;7.152;2023-07-24T11:12:51;4.25;;;1.90;;
19543;SDS011;9917;51.256;7.152;2023-07-24T11:15:22;3.60;;;1.63;;
19543;SDS011;9917;51.256;7.152;2023-07-24T11:17:49;2.42;;;1.40;;
19543;SDS011;9917;51.256;7.152;2023-07-24T11:20:15;2.50;;;1.40;;
19543;SDS011;9917;51.256;7.152;2023-07-24T11:22:43;3.58;;;2.00;;
19543;SDS011;9917;51.256;7.152;2023-07-24T11:25:09;2.30;;;1.35;;
19543;SDS011;9917;51.256;7.152;2023-07-24T11:27:39;4.78;;;1.70;;
19543;SDS011;9917;51.256;7.152;2023-07-24T11:30:06;3.15;;;1.65;;
19543;SDS011;9917;51.256;7.152;2023-07-24T11:32:32;3.47;;;1.52;;
19543;SDS011;9917;51.256;7.152;2023-07-24T11:34:58;5.05;;;1.45;;
19543;SDS011;9917;51.256;7.152;2023-07-24T11:37:25;2.83;;;1.40;;
19543;SDS011;9917;51.256;7.152;2023-07-24T11:39:56;4.55;;;1.95;;
19543;SDS011;9917;51.256;7.152;2023-07-24T11:42:24;16.85;;;8.77;;
19543;SDS011;9917;51.256;7.152;2023-07-24T11:44:50;8.50;;;3.25;;
19543;SDS011;9917;51.256;7.152;2023-07-24T11:47:16;7.15;;;3.50;;
19543;SDS011;9917;51.256;7.152;2023-07-24T11:49:42;5.35;;;2.28;;
19543;SDS011;9917;51.256;7.152;2023-07-24T11:52:08;3.10;;;1.90;;
19543;SDS011;9917;51.256;7.152;2023-07-24T11:54:34;6.13;;;2.88;;
19543;SDS011;9917;51.256;7.152;2023-07-24T11:57:02;6.88;;;4.00;;
19543;SDS011;9917;51.256;7.152;2023-07-24T11:59:27;8.77;;;5.10;;
19543;SDS011;9917;51.256;7.152;2023-07-24T12:01:53;7.35;;;3.22;;
19543;SDS011;9917;51.256;7.152;2023-07-24T12:04:19;3.60;;;1.20;;
19543;SDS011;9917;51.256;7.152;2023-07-24T12:06:45;3.88;;;1.10;;
19543;SDS011;9917;51.256;7.152;2023-07-24T12:09:11;3.05;;;0.70;;
19543;SDS011;9917;51.256;7.152;2023-07-24T12:11:41;1.80;;;0.77;;
19543;SDS011;9917;51.256;7.152;2023-07-24T12:14:08;3.55;;;1.05;;
19543;SDS011;9917;51.256;7.152;2023-07-24T12:16:34;3.28;;;0.80;;
19543;SDS011;9917;51.256;7.152;2023-07-24T12:19:00;3.08;;;0.95;;
19543;SDS011;9917;51.256;7.152;2023-07-24T12:21:27;3.67;;;1.30;;
19543;SDS011;9917;51.256;7.152;2023-07-24T12:23:52;1.23;;;0.70;;
19543;SDS011;9917;51.256;7.152;2023-07-24T12:26:18;3.33;;;0.80;;
19543;SDS011;9917;51.256;7.152;2023-07-24T12:28:44;2.35;;;0.82;;
19543;SDS011;9917;51.256;7.152;2023-07-24T12:31:11;2.85;;;0.65;;
19543;SDS011;9917;51.256;7.152;2023-07-24T12:33:37;1.42;;;0.65;;
19543;SDS011;9917;51.256;7.152;2023-07-24T12:36:04;1.67;;;0.80;;
19543;SDS011;9917;51.256;7.152;2023-07-24T12:38:29;1.98;;;0.60;;
19543;SDS011;9917;51.256;7.152;2023-07-24T12:40:55;2.00;;;0.68;;
19543;SDS011;9917;51.256;7.152;2023-07-24T12:43:21;3.83;;;0.75;;
19543;SDS011;9917;51.256;7.152;2023-07-24T12:45:47;2.97;;;0.77;;
19543;SDS011;9917;51.256;7.152;2023-07-24T12:48:14;3.22;;;1.10;;
19543;SDS011;9917;51.256;7.152;2023-07-24T12:50:40;2.03;;;0.80;;
19543;SDS011;9917;51.256;7.152;2023-07-24T12:53:06;5.03;;;0.93;;
19543;SDS011;9917;51.256;7.152;2023-07-24T12:55:32;1.50;;;0.75;;
19543;SDS011;9917;51.256;7.152;2023-07-24T12:57:58;1.77;;;0.80;;
19543;SDS011;9917;51.256;7.152;2023-07-24T13:00:24;2.22;;;0.90;;
19543;SDS011;9917;51.256;7.152;2023-07-24T13:02:50;2.25;;;0.90;;
19543;SDS011;9917;51.256;7.152;2023-07-24T13:05:17;1.63;;;0.90;;
19543;SDS011;9917;51.256;7.152;2023-07-24T13:07:43;1.85;;;0.90;;
19543;SDS011;9917;51.256;7.152;2023-07-24T13:10:09;1.40;;;0.70;;
19543;SDS011;9917;51.256;7.152;2023-07-24T13:12:35;2.15;;;0.68;;
19543;SDS011;9917;51.256;7.152;2023-07-24T13:15:01;2.25;;;1.05;;
19543;SDS011;9917;51.256;7.152;2023-07-24T13:17:27;2.13;;;0.70;;
19543;SDS011;9917;51.256;7.152;2023-07-24T13:19:53;2.17;;;1.10;;
19543;SDS011;9917;51.256;7.152;2023-07-24T13:22:20;2.17;;;0.80;;
19543;SDS011;9917;51.256;7.152;2023-07-24T13:24:46;1.80;;;0.88;;
19543;SDS011;9917;51.256;7.152;2023-07-24T13:27:12;1.70;;;0.90;;
19543;SDS011;9917;51.256;7.152;2023-07-24T13:29:38;1.85;;;0.90;;
19543;SDS011;9917;51.256;7.152;2023-07-24T13:32:04;1.10;;;0.60;;
19543;SDS011;9917;51.256;7.152;2023-07-24T13:34:30;2.50;;;1.05;;
19543;SDS011;9917;51.256;7.152;2023-07-24T13:36:56;2.17;;;1.00;;
19543;SDS011;9917;51.256;7.152;2023-07-24T13:39:23;1.63;;;0.80;;
19543;SDS011;9917;51.256;7.152;2023-07-24T13:41:49;1.85;;;0.95;;
19543;SDS011;9917;51.256;7.152;2023-07-24T13:44:15;2.22;;;0.90;;
19543;SDS011;9917;51.256;7.152;2023-07-24T13:46:41;2.13;;;1.10;;
19543;SDS011;9917;51.256;7.152;2023-07-24T13:49:07;1.95;;;0.95;;
19543;SDS011;9917;51.256;7.152;2023-07-24T13:51:33;2.50;;;1.08;;
19543;SDS011;9917;51.256;7.152;2023-07-24T13:53:59;2.08;;;1.10;;
19543;SDS011;9917;51.256;7.152;2023-07-24T13:56:26;2.60;;;1.25;;
19543;SDS011;9917;51.256;7.152;2023-07-24T13:58:52;7.03;;;2.60;;
19543;SDS011;9917;51.256;7.152;2023-07-24T14:01:18;2.47;;;1.40;;
19543;SDS011;9917;51.256;7.152;2023-07-24T14:03:44;2.25;;;1.30;;
19543;SDS011;9917;51.256;7.152;2023-07-24T14:06:10;1.55;;;0.95;;
19543;SDS011;9917;51.256;7.152;2023-07-24T14:08:36;2.47;;;1.00;;
19543;SDS011;9917;51.256;7.152;2023-07-24T14:11:02;2.80;;;0.90;;
19543;SDS011;9917;51.256;7.152;2023-07-24T14:13:29;2.08;;;1.08;;
19543;SDS011;9917;51.256;7.152;2023-07-24T14:15:55;2.40;;;1.15;;
19543;SDS011;9917;51.256;7.152;2023-07-24T14:18:21;3.85;;;0.80;;
19543;SDS011;9917;51.256;7.152;2023-07-24T14:20:47;4.30;;;1.30;;
19543;SDS011;9917;51.256;7.152;2023-07-24T14:23:13;4.97;;;1.50;;
19543;SDS011;9917;51.256;7.152;2023-07-24T14:25:39;3.20;;;1.70;;
19543;SDS011;9917;51.256;7.152;2023-07-24T14:28:05;2.80;;;1.33;;
19543;SDS011;9917;51.256;7.152;2023-07-24T14:30:32;3.05;;;1.08;;
19543;SDS011;9917;51.256;7.152;2023-07-24T14:32:58;2.10;;;1.00;;
19543;SDS011;9917;51.256;7.152;2023-07-24T14:35:24;1.95;;;1.10;;
19543;SDS011;9917;51.256;7.152;2023-07-24T14:37:50;2.38;;;1.02;;
19543;SDS011;9917;51.256;7.152;2023-07-24T14:40:16;2.42;;;1.00;;
19543;SDS011;9917;51.256;7.152;2023-07-24T14:42:42;2.78;;;0.95;;
19543;SDS011;9917;51.256;7.152;2023-07-24T14:45:08;2.58;;;1.10;;
19543;SDS011;9917;51.256;7.152;2023-07-24T14:47:36;1.80;;;0.82;;
19543;SDS011;9917;51.256;7.152;2023-07-24T14:50:02;3.15;;;0.80;;
19543;SDS011;9917;51.256;7.152;2023-07-24T14:52:28;2.78;;;1.02;;
19543;SDS011;9917;51.256;7.152;2023-07-24T14:54:54;4.20;;;1.20;;
19543;SDS011;9917;51.256;7.152;2023-07-24T14:57:20;1.90;;;0.95;;
19543;SDS011;9917;51.256;7.152;2023-07-24T14:59:46;1.85;;;0.93;;
19543;SDS011;9917;51.256;7.152;2023-07-24T15:02:12;2.33;;;0.88;;